<?xml version="1.0" encoding="UTF-8" standalone="no" ?>
<gpx xmlns="http://www.topografix.com/GPX/1/1" xmlns:xsi="http://www.w3.org/2001/XMLSchema-instance" xsi:schemaLocation="http://www.topografix.com/GPX/1/1 http://www.topografix.com/GPX/1/1/gpx.xsd" version="1.1" creator="VisuGPX - https://www.visugpx.com">
  <metadata>
    <name>Traversée Belledonne </name>
    <desc><![CDATA[
[b]Traversée Belledonne [/b]effectuée entre le col du Cucheron et Chamrousse . Durée : 4,5 jours en Juin 2017.

Contient pas mal de [b]hors sentier[/b].

[b]Attention la descente du Rocher Blanc[/b] par le [b]col de l'Amiante[/b] vers les lacs des 7 laux est[b] exposée[/b]... [b]Je ne repasserai plus par là !![/b]]]></desc>
  </metadata>
  <trk>
    <name><![CDATA[J3]]></name>
    <trkseg>
      <trkpt lat="45.26476" lon="6.11358">
        <ele>1762.596</ele>
        <time>2017-03-25T18:57:12Z</time>
      </trkpt>
      <trkpt lat="45.2646" lon="6.11438">
        <ele>1762.596</ele>
        <time>2017-03-25T18:57:12Z</time>
      </trkpt>
      <trkpt lat="45.263" lon="6.11695">
        <ele>1762.596</ele>
        <time>2017-03-25T18:57:12Z</time>
      </trkpt>
      <trkpt lat="45.2617" lon="6.12006">
        <ele>2053.711</ele>
        <time>2017-03-25T18:55:12Z</time>
      </trkpt>
      <trkpt lat="45.2634" lon="6.11961">
        <ele>2062.28625</ele>
        <time>2017-03-25T18:54:42Z</time>
      </trkpt>
      <trkpt lat="45.26281" lon="6.12077">
        <ele>2066.573875</ele>
        <time>2017-03-25T18:54:27Z</time>
      </trkpt>
      <trkpt lat="45.26358" lon="6.12049">
        <ele>2068.7176875</ele>
        <time>2017-03-25T18:54:19Z</time>
      </trkpt>
      <trkpt lat="45.26271" lon="6.12234">
        <ele>2069.78959375</ele>
        <time>2017-03-25T18:54:15Z</time>
      </trkpt>
      <trkpt lat="45.26081" lon="6.12349">
        <ele>2070.325546875</ele>
        <time>2017-03-25T18:54:13Z</time>
      </trkpt>
      <trkpt lat="45.26022" lon="6.12508">
        <ele>2070.5935234375</ele>
        <time>2017-03-25T18:54:12Z</time>
      </trkpt>
      <trkpt lat="45.25982" lon="6.12517">
        <ele>2070.7275117188</ele>
        <time>2017-03-25T18:54:12Z</time>
      </trkpt>
      <trkpt lat="45.2596" lon="6.12558">
        <ele>2070.7945058594</ele>
        <time>2017-03-25T18:54:12Z</time>
      </trkpt>
      <trkpt lat="45.25907" lon="6.12577">
        <ele>2070.8615</ele>
        <time>2017-03-25T18:54:12Z</time>
      </trkpt>
      <trkpt lat="45.25836" lon="6.12831">
        <ele>2088.012</ele>
        <time>2017-03-25T18:53:12Z</time>
      </trkpt>
      <trkpt lat="45.25806" lon="6.12909">
        <ele>2125.8</ele>
        <time>2017-03-25T18:51:12Z</time>
      </trkpt>
      <trkpt lat="45.25797" lon="6.12921">
        <ele>2128.844</ele>
        <time>2017-03-25T18:49:12Z</time>
      </trkpt>
      <trkpt lat="45.25728" lon="6.12921">
        <ele>2148.881</ele>
        <time>2017-03-25T18:47:12Z</time>
      </trkpt>
      <trkpt lat="45.25565" lon="6.12896">
        <ele>2180.197</ele>
        <time>2017-03-25T18:45:12Z</time>
      </trkpt>
      <trkpt lat="45.25495" lon="6.1293">
        <ele>2215.08</ele>
        <time>2017-03-25T18:43:12Z</time>
      </trkpt>
      <trkpt lat="45.25251" lon="6.12836">
        <ele>2274.155</ele>
        <time>2017-03-25T18:41:12Z</time>
      </trkpt>
      <trkpt lat="45.25233" lon="6.12754">
        <ele>2307.857</ele>
        <time>2017-03-25T18:39:12Z</time>
      </trkpt>
      <trkpt lat="45.25214" lon="6.12707">
        <ele>2332.376</ele>
        <time>2017-03-25T18:37:12Z</time>
      </trkpt>
      <trkpt lat="45.25006" lon="6.12557">
        <ele>2424.747</ele>
        <time>2017-03-25T18:35:12Z</time>
      </trkpt>
      <trkpt lat="45.24906" lon="6.12454">
        <ele>2445.224</ele>
        <time>2017-03-25T18:33:12Z</time>
      </trkpt>
      <trkpt lat="45.24888" lon="6.12351">
        <ele>2460.141</ele>
        <time>2017-03-25T18:31:12Z</time>
      </trkpt>
      <trkpt lat="45.24861" lon="6.12291">
        <ele>2472.568</ele>
        <time>2017-03-25T18:29:12Z</time>
      </trkpt>
      <trkpt lat="45.24891" lon="6.12235">
        <ele>2464.439</ele>
        <time>2017-03-25T18:27:12Z</time>
      </trkpt>
      <trkpt lat="45.2481" lon="6.12085">
        <ele>2492.85</ele>
        <time>2017-03-25T18:25:12Z</time>
      </trkpt>
      <trkpt lat="45.24761" lon="6.11977">
        <ele>2530.368</ele>
        <time>2017-03-25T18:23:12Z</time>
      </trkpt>
      <trkpt lat="45.24726" lon="6.11802">
        <ele>2592.461</ele>
        <time>2017-03-25T18:21:12Z</time>
      </trkpt>
      <trkpt lat="45.24662" lon="6.11692">
        <ele>2625.878</ele>
        <time>2017-03-25T18:19:12Z</time>
      </trkpt>
      <trkpt lat="45.24587" lon="6.11552">
        <ele>2665.201</ele>
        <time>2017-03-25T18:17:12Z</time>
      </trkpt>
      <trkpt lat="45.24513" lon="6.11372">
        <ele>2714.269</ele>
        <time>2017-03-25T18:15:12Z</time>
      </trkpt>
      <trkpt lat="45.24459" lon="6.11292">
        <ele>2737.16</ele>
        <time>2017-03-25T18:13:12Z</time>
      </trkpt>
      <trkpt lat="45.24376" lon="6.11162">
        <ele>2782.28</ele>
        <time>2017-03-25T18:11:12Z</time>
      </trkpt>
      <trkpt lat="45.24257" lon="6.11012">
        <ele>2830.801</ele>
        <time>2017-03-25T18:09:12Z</time>
      </trkpt>
      <trkpt lat="45.24201" lon="6.10907">
        <ele>2867.035</ele>
        <time>2017-03-25T18:07:12Z</time>
      </trkpt>
      <trkpt lat="45.24187" lon="6.10858">
        <ele>2879.998</ele>
        <time>2017-03-25T18:05:12Z</time>
      </trkpt>
      <trkpt lat="45.24173" lon="6.10814">
        <ele>2889.284</ele>
        <time>2017-03-25T18:03:12Z</time>
      </trkpt>
      <trkpt lat="45.24152" lon="6.10756">
        <ele>2887.146</ele>
        <time>2017-03-25T18:01:12Z</time>
      </trkpt>
      <trkpt lat="45.24135" lon="6.10761">
        <ele>2898.204</ele>
        <time>2017-03-25T17:59:12Z</time>
      </trkpt>
      <trkpt lat="45.24127" lon="6.10744">
        <ele>2893.675</ele>
        <time>2017-03-25T17:57:12Z</time>
      </trkpt>
      <trkpt lat="45.24115" lon="6.1073">
        <ele>2886.862</ele>
        <time>2017-03-25T17:55:12Z</time>
      </trkpt>
      <trkpt lat="45.24091" lon="6.1072">
        <ele>2874.224</ele>
        <time>2017-03-25T17:53:12Z</time>
      </trkpt>
      <trkpt lat="45.24087" lon="6.1073">
        <ele>2873.107</ele>
        <time>2017-03-25T17:51:12Z</time>
      </trkpt>
      <trkpt lat="45.24081" lon="6.10725">
        <ele>2869.319</ele>
        <time>2017-03-25T17:49:12Z</time>
      </trkpt>
      <trkpt lat="45.24068" lon="6.10744">
        <ele>2859.326</ele>
        <time>2017-03-25T17:47:12Z</time>
      </trkpt>
      <trkpt lat="45.24054" lon="6.10746">
        <ele>2848.384</ele>
        <time>2017-03-25T17:45:12Z</time>
      </trkpt>
      <trkpt lat="45.24031" lon="6.1076">
        <ele>2836.026</ele>
        <time>2017-03-25T17:43:12Z</time>
      </trkpt>
      <trkpt lat="45.24013" lon="6.10757">
        <ele>2828.206</ele>
        <time>2017-03-25T17:41:12Z</time>
      </trkpt>
      <trkpt lat="45.23986" lon="6.10776">
        <ele>2813.726</ele>
        <time>2017-03-25T17:39:12Z</time>
      </trkpt>
      <trkpt lat="45.23968" lon="6.10823">
        <ele>2798.342</ele>
        <time>2017-03-25T17:37:12Z</time>
      </trkpt>
      <trkpt lat="45.23905" lon="6.10844">
        <ele>2786.413</ele>
        <time>2017-03-25T17:35:12Z</time>
      </trkpt>
      <trkpt lat="45.23868" lon="6.10797">
        <ele>2797.765</ele>
        <time>2017-03-25T17:33:12Z</time>
      </trkpt>
      <trkpt lat="45.23841" lon="6.10767">
        <ele>2796.577</ele>
        <time>2017-03-25T17:31:12Z</time>
      </trkpt>
      <trkpt lat="45.23877" lon="6.1069">
        <ele>2754.844</ele>
        <time>2017-03-25T17:29:12Z</time>
      </trkpt>
      <trkpt lat="45.2392" lon="6.10647">
        <ele>2719.791</ele>
        <time>2017-03-25T17:27:12Z</time>
      </trkpt>
      <trkpt lat="45.23917" lon="6.10574">
        <ele>2699.668</ele>
        <time>2017-03-25T17:25:12Z</time>
      </trkpt>
      <trkpt lat="45.23932" lon="6.10432">
        <ele>2658.319</ele>
        <time>2017-03-25T17:23:12Z</time>
      </trkpt>
      <trkpt lat="45.23932" lon="6.10364">
        <ele>2641.671</ele>
        <time>2017-03-25T17:21:12Z</time>
      </trkpt>
      <trkpt lat="45.24001" lon="6.10226">
        <ele>2624.815</ele>
        <time>2017-03-25T17:19:12Z</time>
      </trkpt>
      <trkpt lat="45.23998" lon="6.10175">
        <ele>2608.996</ele>
        <time>2017-03-25T17:17:12Z</time>
      </trkpt>
      <trkpt lat="45.24028" lon="6.10106">
        <ele>2603.375</ele>
        <time>2017-03-25T17:15:12Z</time>
      </trkpt>
      <trkpt lat="45.24013" lon="6.10012">
        <ele>2567.19</ele>
        <time>2017-03-25T17:13:12Z</time>
      </trkpt>
      <trkpt lat="45.24077" lon="6.09905">
        <ele>2541.948</ele>
        <time>2017-03-25T17:11:12Z</time>
      </trkpt>
      <trkpt lat="45.24035" lon="6.09832">
        <ele>2508.706</ele>
        <time>2017-03-25T17:09:12Z</time>
      </trkpt>
      <trkpt lat="45.24028" lon="6.0972">
        <ele>2465.456</ele>
        <time>2017-03-25T17:07:12Z</time>
      </trkpt>
      <trkpt lat="45.24059" lon="6.09583">
        <ele>2412.815</ele>
        <time>2017-03-25T17:05:12Z</time>
      </trkpt>
      <trkpt lat="45.24074" lon="6.09544">
        <ele>2404.732</ele>
        <time>2017-03-25T17:03:12Z</time>
      </trkpt>
      <trkpt lat="45.24083" lon="6.09415">
        <ele>2356.818</ele>
        <time>2017-03-25T17:01:12Z</time>
      </trkpt>
      <trkpt lat="45.24116" lon="6.09351">
        <ele>2325.932</ele>
        <time>2017-03-25T16:59:12Z</time>
      </trkpt>
      <trkpt lat="45.24131" lon="6.09265">
        <ele>2305.32</ele>
        <time>2017-03-25T16:57:12Z</time>
      </trkpt>
      <trkpt lat="45.24161" lon="6.09236">
        <ele>2294.676</ele>
        <time>2017-03-25T16:55:12Z</time>
      </trkpt>
      <trkpt lat="45.24253" lon="6.092">
        <ele>2271.227</ele>
        <time>2017-03-25T16:53:12Z</time>
      </trkpt>
      <trkpt lat="45.24302" lon="6.09204">
        <ele>2271.94</ele>
        <time>2017-03-25T16:51:12Z</time>
      </trkpt>
      <trkpt lat="45.24338" lon="6.09129">
        <ele>2267.268</ele>
        <time>2017-03-25T16:49:12Z</time>
      </trkpt>
      <trkpt lat="45.2433" lon="6.09067">
        <ele>2259.067</ele>
        <time>2017-03-25T16:47:12Z</time>
      </trkpt>
      <trkpt lat="45.24353" lon="6.08829">
        <ele>2269.078</ele>
        <time>2017-03-25T16:45:12Z</time>
      </trkpt>
      <trkpt lat="45.24456" lon="6.08678">
        <ele>2256.518</ele>
        <time>2017-03-25T16:43:12Z</time>
      </trkpt>
      <trkpt lat="45.24384" lon="6.0862">
        <ele>2182.56</ele>
        <time>2017-03-25T16:41:12Z</time>
      </trkpt>
      <trkpt lat="45.24351" lon="6.0854">
        <ele>2158.809</ele>
        <time>2017-03-25T16:39:12Z</time>
      </trkpt>
      <trkpt lat="45.24338" lon="6.08506">
        <ele>2153.029</ele>
      </trkpt>
      <trkpt lat="45.24324" lon="6.08481">
        <ele>2181.496</ele>
      </trkpt>
      <trkpt lat="45.243" lon="6.08488">
        <ele>2182.485</ele>
      </trkpt>
      <trkpt lat="45.24277" lon="6.08487">
        <ele>2179.189</ele>
      </trkpt>
      <trkpt lat="45.2425" lon="6.08487">
        <ele>2178.788</ele>
      </trkpt>
      <trkpt lat="45.24224" lon="6.08486">
        <ele>2176.139</ele>
      </trkpt>
      <trkpt lat="45.24204" lon="6.08487">
        <ele>2177.264</ele>
      </trkpt>
      <trkpt lat="45.2418" lon="6.08471">
        <ele>2174.622</ele>
      </trkpt>
      <trkpt lat="45.24163" lon="6.08445">
        <ele>2168.037</ele>
      </trkpt>
      <trkpt lat="45.24145" lon="6.08437">
        <ele>2166.188</ele>
      </trkpt>
      <trkpt lat="45.24126" lon="6.08436">
        <ele>2165.455</ele>
      </trkpt>
      <trkpt lat="45.24107" lon="6.08435">
        <ele>2165.02</ele>
      </trkpt>
      <trkpt lat="45.24086" lon="6.08426">
        <ele>2163.712</ele>
      </trkpt>
      <trkpt lat="45.2407" lon="6.08418">
        <ele>2163.896</ele>
      </trkpt>
      <trkpt lat="45.24036" lon="6.08406">
        <ele>2166.927</ele>
      </trkpt>
      <trkpt lat="45.24006" lon="6.084">
        <ele>2167.605</ele>
      </trkpt>
      <trkpt lat="45.23993" lon="6.08393">
        <ele>2166.056</ele>
      </trkpt>
      <trkpt lat="45.23973" lon="6.08375">
        <ele>2163.017</ele>
      </trkpt>
      <trkpt lat="45.23945" lon="6.08359">
        <ele>2163.967</ele>
      </trkpt>
      <trkpt lat="45.2393" lon="6.08349">
        <ele>2165.831</ele>
      </trkpt>
      <trkpt lat="45.23914" lon="6.08344">
        <ele>2167.627</ele>
      </trkpt>
      <trkpt lat="45.23901" lon="6.08344">
        <ele>2168.739</ele>
      </trkpt>
      <trkpt lat="45.23862" lon="6.08341">
        <ele>2171.526</ele>
      </trkpt>
      <trkpt lat="45.23853" lon="6.08341">
        <ele>2172.213</ele>
      </trkpt>
      <trkpt lat="45.23837" lon="6.0834">
        <ele>2173.459</ele>
      </trkpt>
      <trkpt lat="45.23817" lon="6.08337">
        <ele>2174.46</ele>
      </trkpt>
      <trkpt lat="45.23797" lon="6.08334">
        <ele>2175.667</ele>
      </trkpt>
      <trkpt lat="45.23774" lon="6.08328">
        <ele>2177.2</ele>
      </trkpt>
      <trkpt lat="45.23754" lon="6.08319">
        <ele>2177.811</ele>
      </trkpt>
      <trkpt lat="45.23735" lon="6.08303">
        <ele>2177.336</ele>
      </trkpt>
      <trkpt lat="45.23711" lon="6.08295">
        <ele>2178.164</ele>
      </trkpt>
      <trkpt lat="45.23692" lon="6.08294">
        <ele>2180.376</ele>
      </trkpt>
      <trkpt lat="45.23669" lon="6.08301">
        <ele>2186.236</ele>
      </trkpt>
      <trkpt lat="45.23664" lon="6.0829">
        <ele>2184.168</ele>
      </trkpt>
      <trkpt lat="45.23664" lon="6.08233">
        <ele>2176.212</ele>
      </trkpt>
      <trkpt lat="45.23665" lon="6.082">
        <ele>2178.395</ele>
      </trkpt>
      <trkpt lat="45.23665" lon="6.0817">
        <ele>2181.529</ele>
      </trkpt>
      <trkpt lat="45.23658" lon="6.08155">
        <ele>2182.238</ele>
      </trkpt>
      <trkpt lat="45.23648" lon="6.08142">
        <ele>2182.464</ele>
      </trkpt>
      <trkpt lat="45.23637" lon="6.08131">
        <ele>2181.963</ele>
      </trkpt>
      <trkpt lat="45.23625" lon="6.08107">
        <ele>2180.509</ele>
      </trkpt>
      <trkpt lat="45.23619" lon="6.08075">
        <ele>2180.423</ele>
      </trkpt>
      <trkpt lat="45.23593" lon="6.08038">
        <ele>2182.897</ele>
      </trkpt>
      <trkpt lat="45.2356" lon="6.07987">
        <ele>2181.963</ele>
      </trkpt>
      <trkpt lat="45.23514" lon="6.07928">
        <ele>2177.584</ele>
      </trkpt>
      <trkpt lat="45.23462" lon="6.07864">
        <ele>2183.565</ele>
      </trkpt>
      <trkpt lat="45.23427" lon="6.0779">
        <ele>2183.583</ele>
      </trkpt>
      <trkpt lat="45.23409" lon="6.07707">
        <ele>2200.221</ele>
      </trkpt>
      <trkpt lat="45.23379" lon="6.0765">
        <ele>2198.297</ele>
      </trkpt>
      <trkpt lat="45.23311" lon="6.07575">
        <ele>2182.366</ele>
      </trkpt>
      <trkpt lat="45.23293" lon="6.07559">
        <ele>2182.481</ele>
      </trkpt>
      <trkpt lat="45.23276" lon="6.07546">
        <ele>2183.768</ele>
      </trkpt>
      <trkpt lat="45.2326" lon="6.07528">
        <ele>2186.348</ele>
      </trkpt>
      <trkpt lat="45.2325" lon="6.07508">
        <ele>2187.41</ele>
      </trkpt>
      <trkpt lat="45.2324" lon="6.07485">
        <ele>2188.966</ele>
      </trkpt>
      <trkpt lat="45.23229" lon="6.07465">
        <ele>2190.139</ele>
      </trkpt>
      <trkpt lat="45.23225" lon="6.07452">
        <ele>2191.224</ele>
      </trkpt>
      <trkpt lat="45.23226" lon="6.07416">
        <ele>2196.657</ele>
      </trkpt>
      <trkpt lat="45.23226" lon="6.07391">
        <ele>2199.591</ele>
      </trkpt>
      <trkpt lat="45.23232" lon="6.07351">
        <ele>2206</ele>
      </trkpt>
      <trkpt lat="45.23231" lon="6.07324">
        <ele>2212.519</ele>
      </trkpt>
      <trkpt lat="45.23223" lon="6.07294">
        <ele>2219.605</ele>
      </trkpt>
      <trkpt lat="45.23223" lon="6.07258">
        <ele>2226.992</ele>
      </trkpt>
      <trkpt lat="45.23223" lon="6.07235">
        <ele>2229.635</ele>
      </trkpt>
      <trkpt lat="45.23225" lon="6.0718">
        <ele>2238.537</ele>
      </trkpt>
      <trkpt lat="45.23224" lon="6.07146">
        <ele>2253.613</ele>
      </trkpt>
      <trkpt lat="45.23222" lon="6.07106">
        <ele>2268.158</ele>
      </trkpt>
      <trkpt lat="45.23222" lon="6.07083">
        <ele>2269.173</ele>
      </trkpt>
      <trkpt lat="45.23223" lon="6.07039">
        <ele>2262.629</ele>
      </trkpt>
      <trkpt lat="45.23224" lon="6.06994">
        <ele>2266.102</ele>
      </trkpt>
      <trkpt lat="45.23223" lon="6.06971">
        <ele>2271.614</ele>
      </trkpt>
      <trkpt lat="45.23223" lon="6.06931">
        <ele>2282.41</ele>
      </trkpt>
      <trkpt lat="45.23219" lon="6.0691">
        <ele>2289.273</ele>
      </trkpt>
      <trkpt lat="45.23213" lon="6.06891">
        <ele>2294.269</ele>
      </trkpt>
      <trkpt lat="45.23213" lon="6.0685">
        <ele>2300.112</ele>
      </trkpt>
      <trkpt lat="45.2321" lon="6.0681">
        <ele>2303.028</ele>
      </trkpt>
      <trkpt lat="45.23209" lon="6.06774">
        <ele>2312.782</ele>
      </trkpt>
      <trkpt lat="45.23211" lon="6.06747">
        <ele>2323.019</ele>
      </trkpt>
      <trkpt lat="45.23223" lon="6.06716">
        <ele>2342.623</ele>
      </trkpt>
      <trkpt lat="45.23231" lon="6.06689">
        <ele>2350.193</ele>
      </trkpt>
      <trkpt lat="45.23231" lon="6.06647">
        <ele>2362.186</ele>
      </trkpt>
      <trkpt lat="45.23224" lon="6.06609">
        <ele>2369.409</ele>
      </trkpt>
      <trkpt lat="45.23217" lon="6.06581">
        <ele>2371.188</ele>
      </trkpt>
      <trkpt lat="45.23205" lon="6.06553">
        <ele>2373.251</ele>
      </trkpt>
      <trkpt lat="45.2319" lon="6.06533">
        <ele>2375.585</ele>
      </trkpt>
      <trkpt lat="45.23166" lon="6.06504">
        <ele>2384.814</ele>
      </trkpt>
      <trkpt lat="45.23183" lon="6.06484">
        <ele>2389.036</ele>
      </trkpt>
      <trkpt lat="45.23201" lon="6.06485">
        <ele>2388.253</ele>
      </trkpt>
      <trkpt lat="45.23217" lon="6.06471">
        <ele>2396.772</ele>
      </trkpt>
      <trkpt lat="45.23208" lon="6.06449">
        <ele>2406.681</ele>
      </trkpt>
      <trkpt lat="45.23195" lon="6.06421">
        <ele>2415.459</ele>
      </trkpt>
      <trkpt lat="45.23184" lon="6.06406">
        <ele>2418.365</ele>
      </trkpt>
      <trkpt lat="45.23173" lon="6.06395">
        <ele>2419.66</ele>
      </trkpt>
      <trkpt lat="45.23159" lon="6.06381">
        <ele>2421.869</ele>
      </trkpt>
      <trkpt lat="45.23152" lon="6.06354">
        <ele>2427.997</ele>
      </trkpt>
      <trkpt lat="45.23142" lon="6.06336">
        <ele>2432.544</ele>
      </trkpt>
      <trkpt lat="45.2314" lon="6.06321">
        <ele>2438.726</ele>
      </trkpt>
      <trkpt lat="45.23124" lon="6.06291">
        <ele>2455.808</ele>
      </trkpt>
      <trkpt lat="45.2311" lon="6.06263">
        <ele>2471.125</ele>
      </trkpt>
      <trkpt lat="45.2311" lon="6.06248">
        <ele>2477.07</ele>
      </trkpt>
      <trkpt lat="45.23104" lon="6.06227">
        <ele>2487.693</ele>
      </trkpt>
      <trkpt lat="45.23092" lon="6.0622">
        <ele>2490.599</ele>
      </trkpt>
      <trkpt lat="45.23074" lon="6.06214">
        <ele>2492.306</ele>
      </trkpt>
      <trkpt lat="45.23073" lon="6.06197">
        <ele>2499.178</ele>
      </trkpt>
      <trkpt lat="45.23074" lon="6.06168">
        <ele>2511.452</ele>
      </trkpt>
      <trkpt lat="45.2307" lon="6.06149">
        <ele>2518.272</ele>
      </trkpt>
      <trkpt lat="45.2306" lon="6.06125">
        <ele>2526.008</ele>
      </trkpt>
      <trkpt lat="45.23057" lon="6.06112">
        <ele>2529.453</ele>
      </trkpt>
      <trkpt lat="45.23049" lon="6.06099">
        <ele>2535.014</ele>
      </trkpt>
      <trkpt lat="45.23048" lon="6.06074">
        <ele>2540.222</ele>
      </trkpt>
      <trkpt lat="45.23056" lon="6.06053">
        <ele>2540.34</ele>
      </trkpt>
      <trkpt lat="45.23061" lon="6.06032">
        <ele>2543.656</ele>
      </trkpt>
      <trkpt lat="45.23057" lon="6.06026">
        <ele>2544.38</ele>
      </trkpt>
      <trkpt lat="45.23053" lon="6.06013">
        <ele>2547.361</ele>
      </trkpt>
      <trkpt lat="45.23052" lon="6.05994">
        <ele>2550.361</ele>
      </trkpt>
      <trkpt lat="45.23061" lon="6.05973">
        <ele>2549.269</ele>
      </trkpt>
      <trkpt lat="45.23067" lon="6.05967">
        <ele>2545.819</ele>
      </trkpt>
      <trkpt lat="45.23074" lon="6.05942">
        <ele>2539.091</ele>
      </trkpt>
      <trkpt lat="45.23083" lon="6.05928">
        <ele>2530.12</ele>
      </trkpt>
      <trkpt lat="45.2309" lon="6.05909">
        <ele>2530.164</ele>
      </trkpt>
      <trkpt lat="45.23098" lon="6.05878">
        <ele>2532.24</ele>
      </trkpt>
      <trkpt lat="45.23105" lon="6.05855">
        <ele>2529.677</ele>
      </trkpt>
      <trkpt lat="45.2311" lon="6.05818">
        <ele>2519.675</ele>
      </trkpt>
      <trkpt lat="45.23116" lon="6.05782">
        <ele>2504.375</ele>
      </trkpt>
      <trkpt lat="45.23118" lon="6.05753">
        <ele>2486.258</ele>
      </trkpt>
      <trkpt lat="45.23119" lon="6.05725">
        <ele>2470.205</ele>
      </trkpt>
      <trkpt lat="45.23122" lon="6.05698">
        <ele>2460.872</ele>
      </trkpt>
      <trkpt lat="45.23134" lon="6.05667">
        <ele>2453.245</ele>
      </trkpt>
      <trkpt lat="45.23142" lon="6.05647">
        <ele>2450.303</ele>
      </trkpt>
      <trkpt lat="45.23152" lon="6.05611">
        <ele>2440.11</ele>
      </trkpt>
      <trkpt lat="45.23164" lon="6.05585">
        <ele>2435.496</ele>
      </trkpt>
      <trkpt lat="45.2317" lon="6.05549">
        <ele>2427.895</ele>
      </trkpt>
      <trkpt lat="45.23172" lon="6.05526">
        <ele>2423.051</ele>
      </trkpt>
      <trkpt lat="45.23173" lon="6.05488">
        <ele>2411.161</ele>
      </trkpt>
      <trkpt lat="45.23172" lon="6.05458">
        <ele>2399.24</ele>
      </trkpt>
      <trkpt lat="45.2317" lon="6.05433">
        <ele>2388.942</ele>
      </trkpt>
      <trkpt lat="45.23166" lon="6.05403">
        <ele>2378.537</ele>
      </trkpt>
      <trkpt lat="45.23167" lon="6.05367">
        <ele>2372.274</ele>
      </trkpt>
      <trkpt lat="45.23164" lon="6.0534">
        <ele>2367.382</ele>
      </trkpt>
      <trkpt lat="45.23158" lon="6.05321">
        <ele>2363.526</ele>
      </trkpt>
      <trkpt lat="45.23148" lon="6.05299">
        <ele>2358.4</ele>
      </trkpt>
      <trkpt lat="45.23135" lon="6.05283">
        <ele>2351.436</ele>
      </trkpt>
      <trkpt lat="45.2313" lon="6.05271">
        <ele>2347.849</ele>
      </trkpt>
      <trkpt lat="45.2312" lon="6.05253">
        <ele>2342.373</ele>
      </trkpt>
      <trkpt lat="45.23113" lon="6.05238">
        <ele>2338.792</ele>
      </trkpt>
      <trkpt lat="45.23103" lon="6.05225">
        <ele>2333.716</ele>
      </trkpt>
      <trkpt lat="45.231" lon="6.05208">
        <ele>2331.3</ele>
      </trkpt>
      <trkpt lat="45.23101" lon="6.05176">
        <ele>2328.945</ele>
      </trkpt>
      <trkpt lat="45.23104" lon="6.05159">
        <ele>2329.591</ele>
      </trkpt>
      <trkpt lat="45.23108" lon="6.05124">
        <ele>2334.376</ele>
      </trkpt>
      <trkpt lat="45.23109" lon="6.05096">
        <ele>2336.737</ele>
      </trkpt>
      <trkpt lat="45.23098" lon="6.05073">
        <ele>2334.08</ele>
      </trkpt>
      <trkpt lat="45.23089" lon="6.05066">
        <ele>2331.488</ele>
      </trkpt>
      <trkpt lat="45.23073" lon="6.05063">
        <ele>2325.451</ele>
      </trkpt>
      <trkpt lat="45.23049" lon="6.05047">
        <ele>2318.435</ele>
      </trkpt>
      <trkpt lat="45.23015" lon="6.05007">
        <ele>2310.229</ele>
      </trkpt>
      <trkpt lat="45.22992" lon="6.04978">
        <ele>2305.029</ele>
      </trkpt>
      <trkpt lat="45.22983" lon="6.04959">
        <ele>2304.76</ele>
      </trkpt>
      <trkpt lat="45.22981" lon="6.04948">
        <ele>2305.62</ele>
      </trkpt>
      <trkpt lat="45.22965" lon="6.04924">
        <ele>2299.791</ele>
      </trkpt>
      <trkpt lat="45.22955" lon="6.04909">
        <ele>2293.872</ele>
      </trkpt>
      <trkpt lat="45.22938" lon="6.04885">
        <ele>2282.407</ele>
      </trkpt>
      <trkpt lat="45.22929" lon="6.04865">
        <ele>2279.111</ele>
      </trkpt>
      <trkpt lat="45.22911" lon="6.04824">
        <ele>2273.461</ele>
      </trkpt>
      <trkpt lat="45.22895" lon="6.04798">
        <ele>2265.58</ele>
      </trkpt>
      <trkpt lat="45.22874" lon="6.04767">
        <ele>2254.537</ele>
      </trkpt>
      <trkpt lat="45.22841" lon="6.04751">
        <ele>2238.606</ele>
      </trkpt>
      <trkpt lat="45.22825" lon="6.0475">
        <ele>2229.805</ele>
      </trkpt>
      <trkpt lat="45.22804" lon="6.04749">
        <ele>2219.312</ele>
      </trkpt>
      <trkpt lat="45.22783" lon="6.04745">
        <ele>2209.096</ele>
      </trkpt>
      <trkpt lat="45.22764" lon="6.04744">
        <ele>2198.107</ele>
      </trkpt>
      <trkpt lat="45.22748" lon="6.04731">
        <ele>2190.261</ele>
      </trkpt>
      <trkpt lat="45.2274" lon="6.04714">
        <ele>2186.797</ele>
      </trkpt>
      <trkpt lat="45.22728" lon="6.04698">
        <ele>2181.299</ele>
      </trkpt>
      <trkpt lat="45.22724" lon="6.0469">
        <ele>2178.54</ele>
      </trkpt>
      <trkpt lat="45.22712" lon="6.04647">
        <ele>2166.112</ele>
      </trkpt>
      <trkpt lat="45.22708" lon="6.04621">
        <ele>2160.193</ele>
      </trkpt>
      <trkpt lat="45.22711" lon="6.04607">
        <ele>2156.25</ele>
      </trkpt>
      <trkpt lat="45.22721" lon="6.0458">
        <ele>2144.471</ele>
      </trkpt>
      <trkpt lat="45.22732" lon="6.04557">
        <ele>2136.83</ele>
      </trkpt>
      <trkpt lat="45.22744" lon="6.04545">
        <ele>2133.822</ele>
      </trkpt>
      <trkpt lat="45.22756" lon="6.04537">
        <ele>2139.85</ele>
      </trkpt>
      <trkpt lat="45.22766" lon="6.04525">
        <ele>2147.662</ele>
      </trkpt>
      <trkpt lat="45.22775" lon="6.04496">
        <ele>2148.648</ele>
      </trkpt>
      <trkpt lat="45.22779" lon="6.04488">
        <ele>2149.833</ele>
      </trkpt>
      <trkpt lat="45.22793" lon="6.0444">
        <ele>2152.742</ele>
      </trkpt>
      <trkpt lat="45.22797" lon="6.04419">
        <ele>2150.04</ele>
      </trkpt>
      <trkpt lat="45.22797" lon="6.04405">
        <ele>2147.205</ele>
      </trkpt>
      <trkpt lat="45.22796" lon="6.0439">
        <ele>2143.386</ele>
      </trkpt>
      <trkpt lat="45.22797" lon="6.04365">
        <ele>2130.768</ele>
      </trkpt>
      <trkpt lat="45.22796" lon="6.04348">
        <ele>2123.239</ele>
      </trkpt>
      <trkpt lat="45.22792" lon="6.04333">
        <ele>2116.506</ele>
      </trkpt>
      <trkpt lat="45.22782" lon="6.04315">
        <ele>2112.814</ele>
      </trkpt>
      <trkpt lat="45.22773" lon="6.04304">
        <ele>2109.673</ele>
      </trkpt>
      <trkpt lat="45.22763" lon="6.04293">
        <ele>2106.464</ele>
      </trkpt>
      <trkpt lat="45.22759" lon="6.0428">
        <ele>2104.594</ele>
      </trkpt>
      <trkpt lat="45.22759" lon="6.04268">
        <ele>2103.539</ele>
      </trkpt>
      <trkpt lat="45.22764" lon="6.04255">
        <ele>2104.105</ele>
      </trkpt>
      <trkpt lat="45.22771" lon="6.04234">
        <ele>2103.479</ele>
      </trkpt>
      <trkpt lat="45.22777" lon="6.0422">
        <ele>2103.207</ele>
      </trkpt>
      <trkpt lat="45.22791" lon="6.04208">
        <ele>2106.963</ele>
      </trkpt>
      <trkpt lat="45.22793" lon="6.04189">
        <ele>2102.901</ele>
      </trkpt>
      <trkpt lat="45.22805" lon="6.04179">
        <ele>2104.325</ele>
      </trkpt>
      <trkpt lat="45.22808" lon="6.04173">
        <ele>2102.934</ele>
      </trkpt>
      <trkpt lat="45.22817" lon="6.04155">
        <ele>2098.777</ele>
      </trkpt>
      <trkpt lat="45.22828" lon="6.04136">
        <ele>2094.73</ele>
      </trkpt>
      <trkpt lat="45.22812" lon="6.04064">
        <ele>2075.596</ele>
      </trkpt>
      <trkpt lat="45.22819" lon="6.04054">
        <ele>2076.905</ele>
      </trkpt>
      <trkpt lat="45.22825" lon="6.04039">
        <ele>2081.705</ele>
      </trkpt>
      <trkpt lat="45.22815" lon="6.04013">
        <ele>2081.44</ele>
      </trkpt>
      <trkpt lat="45.2281" lon="6.04">
        <ele>2081.538</ele>
      </trkpt>
      <trkpt lat="45.22798" lon="6.03987">
        <ele>2078.185</ele>
      </trkpt>
      <trkpt lat="45.22785" lon="6.03974">
        <ele>2073.72</ele>
      </trkpt>
      <trkpt lat="45.22766" lon="6.03952">
        <ele>2065.523</ele>
      </trkpt>
      <trkpt lat="45.22748" lon="6.03925">
        <ele>2060.651</ele>
      </trkpt>
      <trkpt lat="45.22732" lon="6.03903">
        <ele>2057.353</ele>
      </trkpt>
      <trkpt lat="45.22717" lon="6.03884">
        <ele>2054.88</ele>
      </trkpt>
      <trkpt lat="45.227" lon="6.03864">
        <ele>2044.418</ele>
      </trkpt>
      <trkpt lat="45.22681" lon="6.0384">
        <ele>2036.651</ele>
      </trkpt>
      <trkpt lat="45.22669" lon="6.03816">
        <ele>2038.691</ele>
      </trkpt>
      <trkpt lat="45.2265" lon="6.03791">
        <ele>2036.062</ele>
      </trkpt>
      <trkpt lat="45.22633" lon="6.03772">
        <ele>2030.998</ele>
      </trkpt>
      <trkpt lat="45.22621" lon="6.03756">
        <ele>2029.704</ele>
      </trkpt>
      <trkpt lat="45.22605" lon="6.03738">
        <ele>2028.407</ele>
      </trkpt>
      <trkpt lat="45.22585" lon="6.0372">
        <ele>2031.137</ele>
      </trkpt>
      <trkpt lat="45.22567" lon="6.03703">
        <ele>2033.343</ele>
      </trkpt>
      <trkpt lat="45.22547" lon="6.03685">
        <ele>2029.782</ele>
      </trkpt>
      <trkpt lat="45.22528" lon="6.03667">
        <ele>2025.391</ele>
      </trkpt>
      <trkpt lat="45.22517" lon="6.03656">
        <ele>2023.175</ele>
      </trkpt>
      <trkpt lat="45.22496" lon="6.03629">
        <ele>2020.415</ele>
      </trkpt>
      <trkpt lat="45.22482" lon="6.03614">
        <ele>2012.384</ele>
      </trkpt>
      <trkpt lat="45.22463" lon="6.03596">
        <ele>2006.416</ele>
      </trkpt>
      <trkpt lat="45.22457" lon="6.03597">
        <ele>2002.469</ele>
      </trkpt>
      <trkpt lat="45.22434" lon="6.03552">
        <ele>2013.893</ele>
      </trkpt>
      <trkpt lat="45.2243" lon="6.03548">
        <ele>2016.657</ele>
      </trkpt>
      <trkpt lat="45.22412" lon="6.03544">
        <ele>2011.448</ele>
      </trkpt>
      <trkpt lat="45.22386" lon="6.03532">
        <ele>1998.461</ele>
      </trkpt>
      <trkpt lat="45.22358" lon="6.03512">
        <ele>1993.398</ele>
      </trkpt>
      <trkpt lat="45.22336" lon="6.03504">
        <ele>2002.951</ele>
      </trkpt>
      <trkpt lat="45.22312" lon="6.03503">
        <ele>2005.716</ele>
      </trkpt>
      <trkpt lat="45.2229" lon="6.03502">
        <ele>1995.851</ele>
      </trkpt>
      <trkpt lat="45.22263" lon="6.03505">
        <ele>1969.586</ele>
      </trkpt>
      <trkpt lat="45.22247" lon="6.03504">
        <ele>1957.775</ele>
      </trkpt>
      <trkpt lat="45.22232" lon="6.03503">
        <ele>1960.062</ele>
      </trkpt>
      <trkpt lat="45.22211" lon="6.035">
        <ele>1961.229</ele>
      </trkpt>
      <trkpt lat="45.22192" lon="6.03497">
        <ele>1960.296</ele>
      </trkpt>
      <trkpt lat="45.22177" lon="6.03496">
        <ele>1956.852</ele>
      </trkpt>
      <trkpt lat="45.22167" lon="6.03487">
        <ele>1960.495</ele>
      </trkpt>
      <trkpt lat="45.22158" lon="6.0348">
        <ele>1963.761</ele>
      </trkpt>
      <trkpt lat="45.22146" lon="6.03471">
        <ele>1967.481</ele>
      </trkpt>
      <trkpt lat="45.22136" lon="6.03447">
        <ele>1979.251</ele>
      </trkpt>
      <trkpt lat="45.22117" lon="6.03431">
        <ele>1978.712</ele>
      </trkpt>
      <trkpt lat="45.22095" lon="6.03428">
        <ele>1975.536</ele>
      </trkpt>
      <trkpt lat="45.22065" lon="6.03426">
        <ele>1974.307</ele>
      </trkpt>
      <trkpt lat="45.22047" lon="6.03428">
        <ele>1973.233</ele>
      </trkpt>
      <trkpt lat="45.22025" lon="6.03441">
        <ele>1971.552</ele>
      </trkpt>
      <trkpt lat="45.22005" lon="6.0344">
        <ele>1975.679</ele>
      </trkpt>
      <trkpt lat="45.21985" lon="6.03439">
        <ele>1982.973</ele>
      </trkpt>
      <trkpt lat="45.21955" lon="6.03431">
        <ele>1996.571</ele>
      </trkpt>
      <trkpt lat="45.21942" lon="6.03424">
        <ele>2002.013</ele>
      </trkpt>
      <trkpt lat="45.2193" lon="6.03421">
        <ele>1997.55</ele>
      </trkpt>
      <trkpt lat="45.21906" lon="6.03418">
        <ele>1992.497</ele>
      </trkpt>
      <trkpt lat="45.21893" lon="6.03407">
        <ele>1997.227</ele>
      </trkpt>
      <trkpt lat="45.2188" lon="6.03385">
        <ele>2005.792</ele>
      </trkpt>
      <trkpt lat="45.21866" lon="6.03371">
        <ele>2008.82</ele>
      </trkpt>
      <trkpt lat="45.21856" lon="6.03356">
        <ele>2010.759</ele>
      </trkpt>
      <trkpt lat="45.21843" lon="6.03336">
        <ele>2013.103</ele>
      </trkpt>
      <trkpt lat="45.21824" lon="6.03314">
        <ele>2016.167</ele>
      </trkpt>
      <trkpt lat="45.21804" lon="6.03282">
        <ele>2016.775</ele>
      </trkpt>
      <trkpt lat="45.21792" lon="6.0323">
        <ele>2011.477</ele>
      </trkpt>
      <trkpt lat="45.21781" lon="6.03186">
        <ele>2005.587</ele>
      </trkpt>
      <trkpt lat="45.2178" lon="6.03168">
        <ele>2006.609</ele>
      </trkpt>
      <trkpt lat="45.21779" lon="6.03164">
        <ele>2006.243</ele>
      </trkpt>
      <trkpt lat="45.21774" lon="6.03149">
        <ele>2004.231</ele>
      </trkpt>
      <trkpt lat="45.21767" lon="6.03128">
        <ele>2000.228</ele>
      </trkpt>
      <trkpt lat="45.2176" lon="6.03105">
        <ele>1994.975</ele>
      </trkpt>
      <trkpt lat="45.21751" lon="6.03084">
        <ele>1988.259</ele>
      </trkpt>
      <trkpt lat="45.21744" lon="6.03075">
        <ele>1986.233</ele>
      </trkpt>
      <trkpt lat="45.21743" lon="6.03066">
        <ele>1985.777</ele>
      </trkpt>
      <trkpt lat="45.21743" lon="6.03066">
        <ele>1985.777</ele>
      </trkpt>
      <trkpt lat="45.21748" lon="6.03041">
        <ele>1987.821</ele>
      </trkpt>
      <trkpt lat="45.21748" lon="6.03023">
        <ele>1988.299</ele>
      </trkpt>
      <trkpt lat="45.21752" lon="6.02989">
        <ele>1986.799</ele>
      </trkpt>
      <trkpt lat="45.21758" lon="6.0295">
        <ele>1985.313</ele>
      </trkpt>
      <trkpt lat="45.21756" lon="6.02945">
        <ele>1984.909</ele>
      </trkpt>
      <trkpt lat="45.2174" lon="6.02928">
        <ele>1984.746</ele>
      </trkpt>
      <trkpt lat="45.2173" lon="6.02914">
        <ele>1988.502</ele>
      </trkpt>
      <trkpt lat="45.21717" lon="6.02901">
        <ele>1994.965</ele>
      </trkpt>
      <trkpt lat="45.217" lon="6.02883">
        <ele>2003.379</ele>
      </trkpt>
      <trkpt lat="45.21682" lon="6.02865">
        <ele>2010.206</ele>
      </trkpt>
      <trkpt lat="45.21661" lon="6.02845">
        <ele>2018.166</ele>
      </trkpt>
      <trkpt lat="45.21645" lon="6.02825">
        <ele>2024.723</ele>
      </trkpt>
      <trkpt lat="45.2163" lon="6.02812">
        <ele>2029.17</ele>
      </trkpt>
      <trkpt lat="45.21616" lon="6.02801">
        <ele>2033.085</ele>
      </trkpt>
      <trkpt lat="45.21604" lon="6.02792">
        <ele>2036.179</ele>
      </trkpt>
      <trkpt lat="45.21597" lon="6.02785">
        <ele>2038.399</ele>
      </trkpt>
      <trkpt lat="45.21582" lon="6.02765">
        <ele>2044.793</ele>
      </trkpt>
      <trkpt lat="45.21565" lon="6.02737">
        <ele>2056.706</ele>
      </trkpt>
      <trkpt lat="45.21551" lon="6.02719">
        <ele>2065.309</ele>
      </trkpt>
      <trkpt lat="45.21538" lon="6.02702">
        <ele>2072.671</ele>
      </trkpt>
      <trkpt lat="45.21525" lon="6.02686">
        <ele>2078.887</ele>
      </trkpt>
      <trkpt lat="45.21509" lon="6.02673">
        <ele>2082.084</ele>
      </trkpt>
      <trkpt lat="45.21494" lon="6.02653">
        <ele>2085.196</ele>
      </trkpt>
      <trkpt lat="45.21481" lon="6.02635">
        <ele>2086.641</ele>
      </trkpt>
      <trkpt lat="45.21457" lon="6.02613">
        <ele>2087.844</ele>
      </trkpt>
      <trkpt lat="45.21439" lon="6.02593">
        <ele>2090.443</ele>
      </trkpt>
      <trkpt lat="45.21422" lon="6.02569">
        <ele>2093.613</ele>
      </trkpt>
      <trkpt lat="45.21403" lon="6.02545">
        <ele>2098.544</ele>
      </trkpt>
      <trkpt lat="45.21385" lon="6.02529">
        <ele>2102.594</ele>
      </trkpt>
      <trkpt lat="45.21366" lon="6.02507">
        <ele>2102.979</ele>
      </trkpt>
      <trkpt lat="45.21343" lon="6.02478">
        <ele>2099.647</ele>
      </trkpt>
      <trkpt lat="45.21318" lon="6.02437">
        <ele>2094.075</ele>
      </trkpt>
      <trkpt lat="45.213" lon="6.02408">
        <ele>2088.366</ele>
      </trkpt>
      <trkpt lat="45.21281" lon="6.0238">
        <ele>2084.896</ele>
      </trkpt>
      <trkpt lat="45.21267" lon="6.02356">
        <ele>2083.57</ele>
      </trkpt>
      <trkpt lat="45.2125" lon="6.02325">
        <ele>2078.973</ele>
      </trkpt>
      <trkpt lat="45.21241" lon="6.02308">
        <ele>2074.846</ele>
      </trkpt>
      <trkpt lat="45.21232" lon="6.02284">
        <ele>2071.699</ele>
      </trkpt>
      <trkpt lat="45.21213" lon="6.02258">
        <ele>2064.357</ele>
      </trkpt>
      <trkpt lat="45.21191" lon="6.02229">
        <ele>2056.202</ele>
      </trkpt>
      <trkpt lat="45.2117" lon="6.02207">
        <ele>2047.383</ele>
      </trkpt>
      <trkpt lat="45.21148" lon="6.02191">
        <ele>2037.316</ele>
      </trkpt>
      <trkpt lat="45.21127" lon="6.0218">
        <ele>2028.084</ele>
      </trkpt>
      <trkpt lat="45.21107" lon="6.02157">
        <ele>2020.606</ele>
      </trkpt>
      <trkpt lat="45.21097" lon="6.0214">
        <ele>2020.724</ele>
      </trkpt>
      <trkpt lat="45.21083" lon="6.02112">
        <ele>2027.541</ele>
      </trkpt>
      <trkpt lat="45.21067" lon="6.02075">
        <ele>2028.198</ele>
      </trkpt>
      <trkpt lat="45.21049" lon="6.02073">
        <ele>2021.937</ele>
      </trkpt>
    </trkseg>
  </trk>
</gpx>